Jacksonville, FL (32212)

3:32 PM EDT on August 30, 2015 (GMT -0400)
Ortega Bluff (BE) | | Change Station
CLOSE
Current Station
Personal Weather Station
Location: Jacksonville, FL
Elevation: 18 ft
Nearby Weather Stations

Elev 18 ft 30.21 °N, 81.72 °W | Updated 0 second ago

Light Thunderstorms and Rain
Light Thunderstorm Rain
77.9 °F
Feels Like 80 °F
N
0.0
Wind Variable Wind from ESE
Gusts 0.0 mph

Today
High -- | Low -- °F
--% Chance of Precip.
Yesterday
High -- | Low -- °F
Precip. -- in
7:02 AM 7:52 PM
Full, 98% visible
Pressure 30.01 in
Visibility 10.0 miles
Clouds Few 1200 ft
Scattered Clouds 2300 ft
Mostly Cloudy 3300 ft
Mostly Cloudy 15000 ft
Heat Index 80 °F
Dew Point 78 °F
Humidity 100%
Rainfall 0.08 in
Snow Depth Not available.
UV 7 out of 12
Pollen 2.90 out of 12
Air Quality Not available.
Flu Activity Not available.
METAR KNIP 301853Z 08004KT 10SM -TSRA FEW012 SCT023CB BKN033 BKN150 28/24 A3003 RMK AO2 RAB51 TSB14 SLP163 OCNL LTGICCG SE-SW TS SE-SW MOV N T1 SET P0000 T02830244 $
Pressure 30.01 in
Visibility 10.0 miles
Clouds Few 1200 ft
Scattered Clouds 2300 ft
Mostly Cloudy 3300 ft
Mostly Cloudy 15000 ft
Heat Index 80 °F
Dew Point 78 °F
Humidity 100%
Rainfall 0.08 in
Snow Depth Not available.
UV 7 out of 12
Pollen 2.90 out of 12
Air Quality Not available.
Flu Activity Not available.
METAR KNIP 301853Z 08004KT 10SM -TSRA FEW012 SCT023CB BKN033 BKN150 28/24 A3003 RMK AO2 RAB51 TSB14 SLP163 OCNL LTGICCG SE-SW TS SE-SW MOV N T1 SET P0000 T02830244 $

10-Day Weather Forecast

×

Almanac

Astronomy

Aug. 30, 2015 Rise Set
Actual Time
Civil Twilight
Nautical Twilight
Astronomical Twilight
Moon
Length of Visible Light
Length of Day
Tomorrow will be .
, % of the Moon is Illuminated

Today's Extremes

State Highs State Lows

Community

WunderPhotos

Upload Photos

1,851,040 photos uploaded!

WunderBlogs® & News

Nearby

Air Quality

  Air Quality AQ Index Pollutant
Not available.

Snow Depth

Station Depth Elevation

Earthquake Activity

City Distance Mag. Time & Date
Minimum magnitude displayed is 2.5.

Coastal Water Temperatures

Place Temperature

Stations

Nearby Weather Stations

Station Location Temp. Windchill Dew Point Humidity Wind Precip. Elev Updated Type